createdAt,value
2023-04-29T00:00:13.879Z,0.00
2023-04-29T00:01:10.853Z,0.00
2023-04-29T00:02:11.164Z,0.00
2023-04-29T00:03:11.937Z,0.00
2023-04-29T00:04:12.538Z,0.00
2023-04-29T00:05:13.551Z,0.00
2023-04-29T00:06:14.224Z,0.00
2023-04-29T00:07:14.039Z,0.00
2023-04-29T00:08:14.178Z,0.00
2023-04-29T00:09:14.457Z,0.00
2023-04-29T00:10:15.261Z,0.00
2023-04-29T00:11:15.426Z,0.00
2023-04-29T00:12:16.312Z,0.00
2023-04-29T00:12:29.303Z,0.00
2023-04-29T00:13:29.375Z,0.00
2023-04-29T00:14:30.389Z,0.00
2023-04-29T00:15:30.423Z,0.00
2023-04-29T00:16:31.257Z,0.00
2023-04-29T00:17:31.722Z,0.00
2023-04-29T00:18:32.437Z,0.00
2023-04-29T00:19:32.595Z,0.00
2023-04-29T00:20:33.330Z,0.00
2023-04-29T00:21:33.678Z,0.00
2023-04-29T00:22:35.572Z,0.00
2023-04-29T00:22:46.156Z,0.00
2023-04-29T00:23:43.628Z,0.00
2023-04-29T00:24:44.330Z,0.00
2023-04-29T00:25:45.014Z,0.00
2023-04-29T00:26:46.855Z,0.00
2023-04-29T00:27:46.712Z,0.00
2023-04-29T00:28:47.597Z,0.00
2023-04-29T00:29:48.102Z,0.00
2023-04-29T00:30:48.809Z,0.00
2023-04-29T00:31:48.831Z,0.00
2023-04-29T00:32:49.402Z,0.00
2023-04-29T00:33:49.894Z,0.00
2023-04-29T00:34:01.377Z,0.00
2023-04-29T00:35:01.556Z,0.00
2023-04-29T00:36:02.292Z,0.00
2023-04-29T00:37:02.274Z,0.00
2023-04-29T00:38:02.814Z,0.00
2023-04-29T00:39:04.745Z,0.00
2023-04-29T00:40:04.770Z,0.00
2023-04-29T00:41:04.666Z,0.00
2023-04-29T00:42:04.745Z,0.00
2023-04-29T00:43:05.372Z,0.00
2023-04-29T00:44:05.814Z,0.00
2023-04-29T00:45:08.096Z,0.00
2023-04-29T00:45:18.297Z,0.00
2023-04-29T00:46:18.844Z,0.00
2023-04-29T00:47:18.977Z,0.00
2023-04-29T00:48:19.715Z,0.00
2023-04-29T00:49:19.921Z,0.00
2023-04-29T00:50:20.062Z,0.00
2023-04-29T00:51:20.216Z,0.00
2023-04-29T00:52:21.092Z,0.00
2023-04-29T00:53:21.804Z,0.00
2023-04-29T00:54:22.533Z,0.00
2023-04-29T00:55:23.447Z,0.00
2023-04-29T00:56:24.244Z,0.00
2023-04-29T00:56:36.200Z,0.00
2023-04-29T00:57:36.100Z,0.00
2023-04-29T00:58:37.029Z,0.00
2023-04-29T00:59:37.905Z,0.00
2023-04-29T01:00:38.076Z,0.00
2023-04-29T01:01:38.811Z,0.00
2023-04-29T01:02:39.686Z,0.00
2023-04-29T01:03:40.168Z,0.00
2023-04-29T01:04:40.248Z,0.00
2023-04-29T01:05:41.058Z,0.00
2023-04-29T01:06:41.180Z,0.00
2023-04-29T01:07:41.995Z,0.00
2023-04-29T01:08:42.230Z,0.00
2023-04-29T01:09:43.065Z,0.00
2023-04-29T01:09:52.431Z,0.00
2023-04-29T01:10:53.127Z,0.00
2023-04-29T01:11:53.907Z,0.00
2023-04-29T01:12:54.266Z,0.00
2023-04-29T01:13:55.188Z,0.00
2023-04-29T01:14:56.398Z,0.00
2023-04-29T01:15:56.255Z,0.00
2023-04-29T01:16:57.198Z,0.00
2023-04-29T01:17:58.056Z,0.00
2023-04-29T01:18:58.213Z,0.00
2023-04-29T01:19:58.957Z,0.00
2023-04-29T01:20:59.262Z,0.00
2023-04-29T01:21:08.536Z,0.00
2023-04-29T01:22:09.200Z,0.00
2023-04-29T01:23:10.158Z,0.00
2023-04-29T01:24:10.244Z,0.00
2023-04-29T01:25:11.047Z,0.00
2023-04-29T01:26:11.859Z,0.00
2023-04-29T01:27:11.897Z,0.00
2023-04-29T01:28:12.713Z,0.00
2023-04-29T01:29:13.114Z,0.00
2023-04-29T01:30:13.153Z,0.00
2023-04-29T01:31:13.997Z,0.00
2023-04-29T01:32:14.917Z,0.00
2023-04-29T01:33:16.832Z,0.00
2023-04-29T01:34:16.779Z,0.00
2023-04-29T01:35:17.225Z,0.00
2023-04-29T01:36:18.065Z,0.00
2023-04-29T01:36:27.689Z,0.00
2023-04-29T01:37:29.464Z,0.00
2023-04-29T01:38:29.160Z,0.00
2023-04-29T01:39:29.585Z,0.00
2023-04-29T01:40:30.271Z,0.00
2023-04-29T01:41:30.407Z,0.00
2023-04-29T01:42:30.568Z,0.00
2023-04-29T01:43:30.627Z,0.00
2023-04-29T01:44:30.737Z,0.00
2023-04-29T01:45:31.552Z,0.00
2023-04-29T01:46:32.153Z,0.00
2023-04-29T01:46:42.544Z,0.00
2023-04-29T01:47:44.189Z,0.00
2023-04-29T01:48:43.994Z,0.00
2023-04-29T01:49:44.643Z,0.00
2023-04-29T01:50:45.295Z,0.00
2023-04-29T01:51:45.121Z,0.00
2023-04-29T01:52:45.182Z,0.00
2023-04-29T01:53:46.022Z,0.00
2023-04-29T01:54:46.889Z,0.00
2023-04-29T01:55:47.619Z,0.00
2023-04-29T01:56:49.381Z,0.00
2023-04-29T01:57:49.160Z,0.00
2023-04-29T01:58:50.455Z,0.00
2023-04-29T01:59:06.672Z,0.00
2023-04-29T02:00:07.506Z,0.00
2023-04-29T02:01:07.794Z,0.00
2023-04-29T02:02:08.368Z,0.00
2023-04-29T02:03:08.838Z,0.00
2023-04-29T02:04:09.612Z,0.00
2023-04-29T02:05:10.036Z,0.00
2023-04-29T02:06:10.681Z,0.00
2023-04-29T02:07:10.759Z,0.00
2023-04-29T02:08:10.978Z,0.00
2023-04-29T02:09:11.105Z,0.00
2023-04-29T02:09:29.653Z,0.00
2023-04-29T02:10:26.795Z,0.00
2023-04-29T02:11:26.966Z,0.00
2023-04-29T02:12:27.140Z,0.00
2023-04-29T02:13:27.157Z,0.00
2023-04-29T02:14:28.024Z,0.00
2023-04-29T02:15:28.054Z,0.00
2023-04-29T02:16:29.358Z,0.00
2023-04-29T02:17:29.155Z,0.00
2023-04-29T02:18:30.090Z,0.00
2023-04-29T02:18:45.242Z,0.00
2023-04-29T02:19:44.965Z,0.00
2023-04-29T02:20:45.140Z,0.00
2023-04-29T02:21:45.819Z,0.00
2023-04-29T02:22:46.725Z,0.00
2023-04-29T02:23:47.655Z,0.00
2023-04-29T02:24:47.765Z,0.00
2023-04-29T02:25:48.025Z,0.00
2023-04-29T02:26:48.448Z,0.00
2023-04-29T02:27:52.311Z,0.00
2023-04-29T02:28:50.156Z,0.00
2023-04-29T02:29:52.313Z,0.00
2023-04-29T02:30:51.983Z,0.00
2023-04-29T02:31:06.617Z,0.00
2023-04-29T02:32:07.290Z,0.00
2023-04-29T02:33:08.455Z,0.00
2023-04-29T02:34:08.211Z,0.00
2023-04-29T02:35:08.357Z,0.00
2023-04-29T02:36:08.537Z,0.00
2023-04-29T02:37:08.851Z,0.00
2023-04-29T02:38:09.205Z,0.00
2023-04-29T02:39:10.069Z,0.00
2023-04-29T02:40:12.017Z,0.00
2023-04-29T02:41:11.635Z,0.00
2023-04-29T02:42:12.464Z,0.00
2023-04-29T02:43:13.159Z,0.00
2023-04-29T02:44:13.505Z,0.00
2023-04-29T02:45:13.641Z,0.00
2023-04-29T02:46:14.221Z,0.00
2023-04-29T02:47:14.339Z,0.00
2023-04-29T02:48:15.149Z,0.00
2023-04-29T02:49:54.721Z,0.00
2023-04-29T02:50:52.094Z,0.00
2023-04-29T02:51:52.805Z,0.00
2023-04-29T02:52:53.486Z,0.00
2023-04-29T02:53:54.338Z,0.00
2023-04-29T02:54:54.331Z,0.00
2023-04-29T02:55:54.602Z,0.00
2023-04-29T02:56:56.540Z,0.00
2023-04-29T02:57:56.463Z,0.00
2023-04-29T02:58:56.623Z,0.00
2023-04-29T02:59:57.662Z,0.00
2023-04-29T03:00:56.723Z,0.00
2023-04-29T03:01:57.263Z,0.00
2023-04-29T03:02:09.251Z,0.00
2023-04-29T03:03:09.888Z,0.00
2023-04-29T03:04:11.662Z,0.00
2023-04-29T03:05:10.588Z,0.00
2023-04-29T03:06:12.435Z,0.00
2023-04-29T03:07:11.579Z,0.00
2023-04-29T03:08:13.167Z,0.00
2023-04-29T03:09:12.282Z,0.00
2023-04-29T03:10:15.952Z,0.00
2023-04-29T03:11:13.359Z,0.00
2023-04-29T03:12:14.111Z,0.00
2023-04-29T03:13:19.518Z,0.00
2023-04-29T03:14:16.367Z,0.00
2023-04-29T03:15:15.497Z,0.00
2023-04-29T03:15:23.202Z,0.00
2023-04-29T03:16:23.834Z,0.00
2023-04-29T03:17:24.779Z,0.00
2023-04-29T03:19:00.707Z,0.00
2023-04-29T03:20:35.122Z,0.05
2023-04-29T03:21:34.838Z,0.05
2023-04-29T03:22:35.564Z,0.05
2023-04-29T03:23:37.450Z,0.05
2023-04-29T03:24:37.489Z,0.05
2023-04-29T03:25:40.177Z,0.05
2023-04-29T03:26:38.119Z,0.09
2023-04-29T03:27:38.234Z,0.09
2023-04-29T03:28:38.402Z,0.09
2023-04-29T03:29:40.327Z,0.14
2023-04-29T03:30:39.541Z,0.14
2023-04-29T03:30:52.551Z,0.14
2023-04-29T03:31:52.426Z,0.18
2023-04-29T03:32:52.479Z,0.18
2023-04-29T03:33:52.639Z,0.22
2023-04-29T03:34:52.895Z,0.27
2023-04-29T03:35:53.635Z,0.27
2023-04-29T03:36:54.472Z,0.36
2023-04-29T03:37:56.344Z,0.41
2023-04-29T03:38:56.249Z,0.50
2023-04-29T03:39:56.457Z,0.63
2023-04-29T03:40:56.656Z,0.76
2023-04-29T03:41:05.888Z,0.81
2023-04-29T03:42:06.629Z,0.99
2023-04-29T03:43:07.016Z,1.26
2023-04-29T03:45:15.805Z,1.80
2023-04-29T03:46:10.828Z,2.12
2023-04-29T03:47:11.167Z,2.47
2023-04-29T03:48:11.288Z,2.97
2023-04-29T03:49:11.670Z,3.64
2023-04-29T03:50:12.412Z,4.55
2023-04-29T03:51:12.947Z,5.62
2023-04-29T03:52:13.072Z,6.89
2023-04-29T03:53:14.973Z,8.15
2023-04-29T03:54:14.821Z,9.68
2023-04-29T03:55:15.309Z,10.98
2023-04-29T03:56:17.394Z,12.24
2023-04-29T03:56:25.514Z,12.42
2023-04-29T03:57:26.593Z,13.68
2023-04-29T03:58:26.441Z,15.21
2023-04-29T03:59:27.415Z,16.56
2023-04-29T04:00:27.573Z,17.64
2023-04-29T04:01:28.759Z,18.36
2023-04-29T04:02:28.828Z,19.98
2023-04-29T04:03:29.531Z,21.96
2023-04-29T04:04:30.578Z,24.66
2023-04-29T04:05:31.097Z,27.90
2023-04-29T04:06:32.943Z,31.50
2023-04-29T04:07:32.680Z,34.56
2023-04-29T04:08:33.542Z,39.24
2023-04-29T04:10:08.700Z,47.88
2023-04-29T04:11:09.555Z,51.12
2023-04-29T04:12:44.238Z,56.16
2023-04-29T04:13:44.123Z,56.52
2023-04-29T04:14:43.537Z,54.36
2023-04-29T04:15:43.543Z,56.88
2023-04-29T04:16:43.645Z,64.44
2023-04-29T04:17:43.731Z,73.80
2023-04-29T04:18:44.230Z,83.16
2023-04-29T04:19:44.486Z,89.64
2023-04-29T04:20:45.366Z,100.80
2023-04-29T04:21:45.736Z,115.20
2023-04-29T04:22:45.911Z,121.68
2023-04-29T04:23:46.649Z,128.16
2023-04-29T04:24:47.127Z,140.40
2023-04-29T04:25:47.933Z,150.48
2023-04-29T04:26:48.763Z,162.00
2023-04-29T04:27:49.695Z,171.36
2023-04-29T04:28:49.850Z,181.44
2023-04-29T04:29:50.928Z,195.84
2023-04-29T04:30:51.553Z,207.36
2023-04-29T04:31:34.284Z,220.32
2023-04-29T04:32:35.159Z,239.04
2023-04-29T04:33:35.149Z,246.24
2023-04-29T04:34:36.562Z,259.20
2023-04-29T04:35:36.379Z,263.52
2023-04-29T04:36:37.209Z,256.32
2023-04-29T04:37:37.335Z,240.48
2023-04-29T04:38:37.988Z,213.12
2023-04-29T04:39:38.656Z,177.12
2023-04-29T04:40:39.377Z,156.24
2023-04-29T04:41:39.852Z,149.76
2023-04-29T04:42:39.797Z,147.60
2023-04-29T04:43:40.209Z,152.64
2023-04-29T04:44:40.940Z,155.52
2023-04-29T04:45:41.696Z,153.36
2023-04-29T04:46:43.186Z,154.80
2023-04-29T04:46:53.854Z,154.80
2023-04-29T04:47:54.313Z,157.68
2023-04-29T04:48:54.656Z,164.16
2023-04-29T04:49:55.047Z,169.20
2023-04-29T04:50:55.188Z,169.92
2023-04-29T04:52:39.136Z,194.40
2023-04-29T04:53:38.099Z,192.96
2023-04-29T04:54:38.656Z,194.40
2023-04-29T04:55:38.672Z,210.24
2023-04-29T04:56:39.540Z,226.08
2023-04-29T04:57:39.570Z,223.20
2023-04-29T04:58:39.797Z,228.96
2023-04-29T04:59:39.869Z,254.88
2023-04-29T05:00:40.493Z,269.28
2023-04-29T05:01:41.029Z,252.00
2023-04-29T05:02:43.882Z,257.76
2023-04-29T05:03:42.437Z,293.76
2023-04-29T05:04:43.145Z,315.36
2023-04-29T05:05:44.008Z,321.12
2023-04-29T05:06:44.069Z,322.56
2023-04-29T05:07:44.797Z,331.20
2023-04-29T05:07:53.454Z,332.64
2023-04-29T05:08:54.376Z,342.72
2023-04-29T05:09:54.837Z,348.48
2023-04-29T05:10:55.570Z,349.92
2023-04-29T05:11:56.584Z,349.92
2023-04-29T05:12:57.429Z,354.24
2023-04-29T05:13:57.628Z,352.80
2023-04-29T05:14:58.090Z,334.08
2023-04-29T05:15:58.759Z,335.52
2023-04-29T05:16:59.359Z,335.52
2023-04-29T05:18:00.323Z,354.24
2023-04-29T05:19:00.400Z,374.40
2023-04-29T05:19:09.118Z,371.52
2023-04-29T05:20:09.884Z,374.40
2023-04-29T05:21:10.528Z,426.24
2023-04-29T05:22:10.731Z,527.04
2023-04-29T05:23:10.742Z,581.76
2023-04-29T05:24:11.452Z,529.92
2023-04-29T05:25:12.292Z,535.68
2023-04-29T05:26:13.132Z,564.48
2023-04-29T05:27:13.957Z,550.08
2023-04-29T05:28:14.261Z,624.96
2023-04-29T05:29:15.165Z,604.80
2023-04-29T05:30:15.952Z,673.92
2023-04-29T05:30:26.644Z,688.32
2023-04-29T05:31:27.472Z,702.72
2023-04-29T05:32:27.672Z,671.04
2023-04-29T05:33:27.626Z,630.72
2023-04-29T05:34:27.600Z,633.60
2023-04-29T05:35:28.285Z,656.64
2023-04-29T05:36:29.114Z,702.72
2023-04-29T05:37:29.708Z,731.52
2023-04-29T05:38:29.736Z,748.80
2023-04-29T05:39:30.171Z,771.84
2023-04-29T05:40:32.072Z,789.12
2023-04-29T05:40:46.263Z,800.64
2023-04-29T05:41:45.282Z,864.00
2023-04-29T05:42:46.293Z,938.88
2023-04-29T05:43:46.632Z,984.96
2023-04-29T05:44:47.616Z,1152.00
2023-04-29T05:45:48.953Z,1215.36
2023-04-29T05:46:48.862Z,1284.48
2023-04-29T05:47:48.840Z,1347.84
2023-04-29T05:48:50.733Z,1347.84
2023-04-29T05:49:50.065Z,1296.00
2023-04-29T05:50:50.838Z,1319.04
2023-04-29T05:51:51.481Z,1313.28
2023-04-29T05:52:52.110Z,1336.32
2023-04-29T05:53:52.770Z,1324.80
2023-04-29T05:54:01.927Z,1319.04
2023-04-29T05:55:03.669Z,1301.76
2023-04-29T05:56:03.462Z,1330.56
2023-04-29T05:57:04.473Z,1393.92
2023-04-29T05:58:05.326Z,1422.72
2023-04-29T05:59:05.361Z,1440.00
2023-04-29T06:00:06.321Z,1451.52
2023-04-29T06:01:06.335Z,1497.60
2023-04-29T06:02:06.430Z,1543.68
2023-04-29T06:03:07.355Z,1555.20
2023-04-29T06:04:08.427Z,1589.76
2023-04-29T06:05:09.413Z,1716.48
2023-04-29T06:06:09.875Z,1831.68
2023-04-29T06:06:24.609Z,1866.24
2023-04-29T06:07:24.622Z,1923.84
2023-04-29T06:08:25.532Z,1912.32
2023-04-29T06:09:27.923Z,1981.44
2023-04-29T06:10:27.214Z,2073.60
2023-04-29T06:11:27.779Z,2096.64
2023-04-29T06:12:27.980Z,2119.68
2023-04-29T06:13:28.669Z,2050.56
2023-04-29T06:14:29.486Z,2280.96
2023-04-29T06:15:30.125Z,2384.64
2023-04-29T06:16:30.176Z,2396.16
2023-04-29T06:17:30.822Z,2257.92
2023-04-29T06:18:31.769Z,2165.76
2023-04-29T06:19:32.573Z,2280.96
2023-04-29T06:19:41.780Z,2292.48
2023-04-29T06:20:42.279Z,2315.52
2023-04-29T06:21:42.919Z,2361.60
2023-04-29T06:22:43.074Z,2188.80
2023-04-29T06:23:43.869Z,1912.32
2023-04-29T06:24:44.845Z,2039.04
2023-04-29T06:25:45.290Z,2327.04
2023-04-29T06:26:46.308Z,2315.52
2023-04-29T06:27:46.419Z,2039.04
2023-04-29T06:28:47.521Z,1900.80
2023-04-29T06:29:47.409Z,1981.44
2023-04-29T06:30:48.368Z,2039.04
2023-04-29T06:31:49.148Z,1877.76
2023-04-29T06:32:49.992Z,2085.12
2023-04-29T06:33:50.690Z,2119.68
2023-04-29T06:34:00.224Z,2108.16
2023-04-29T06:34:59.843Z,2257.92
2023-04-29T06:35:59.862Z,2499.84
2023-04-29T06:37:00.841Z,2396.16
2023-04-29T06:38:01.574Z,2280.96
2023-04-29T06:39:02.333Z,2073.60
2023-04-29T06:40:02.644Z,2592.00
2023-04-29T06:41:03.339Z,2822.40
2023-04-29T06:42:04.304Z,2545.92
2023-04-29T06:43:04.945Z,2396.16
2023-04-29T06:44:05.591Z,2384.64
2023-04-29T06:45:06.526Z,2592.00
2023-04-29T06:45:15.217Z,2603.52
2023-04-29T06:46:15.782Z,2799.36
2023-04-29T06:47:15.998Z,2822.40
2023-04-29T06:48:17.786Z,2580.48
2023-04-29T06:49:17.316Z,2926.08
2023-04-29T06:50:18.203Z,3133.44
2023-04-29T06:51:19.018Z,3617.28
2023-04-29T06:52:19.665Z,4032.00
2023-04-29T06:53:20.459Z,4055.04
2023-04-29T06:54:21.474Z,4032.00
2023-04-29T06:55:22.151Z,4055.04
2023-04-29T06:56:22.722Z,3801.60
2023-04-29T06:57:23.393Z,3755.52
2023-04-29T06:57:33.859Z,3755.52
2023-04-29T06:58:34.675Z,3962.88
2023-04-29T06:59:35.294Z,4078.08
2023-04-29T07:00:36.071Z,4055.04
2023-04-29T07:01:36.299Z,3962.88
2023-04-29T07:02:36.345Z,3962.88
2023-04-29T07:03:37.073Z,3962.88
2023-04-29T07:04:37.805Z,4262.40
2023-04-29T07:05:38.423Z,4631.04
2023-04-29T07:06:39.171Z,4515.84
2023-04-29T07:07:39.864Z,3732.48
2023-04-29T07:08:40.519Z,4170.24
2023-04-29T07:09:41.341Z,3640.32
2023-04-29T07:09:50.601Z,3479.04
2023-04-29T07:10:50.976Z,3340.80
2023-04-29T07:11:51.671Z,3340.80
2023-04-29T07:12:52.393Z,3847.68
2023-04-29T07:13:53.112Z,3801.60
2023-04-29T07:14:53.937Z,3087.36
2023-04-29T07:15:54.445Z,2926.08
2023-04-29T07:16:55.157Z,2684.16
2023-04-29T07:17:55.977Z,2626.56
2023-04-29T07:18:56.837Z,2764.80
2023-04-29T07:19:57.520Z,2845.44
2023-04-29T07:20:59.222Z,3225.60
2023-04-29T07:21:58.954Z,3363.84
2023-04-29T07:22:07.710Z,3363.84
2023-04-29T07:23:07.712Z,3386.88
2023-04-29T07:24:08.397Z,3502.08
2023-04-29T07:25:09.524Z,3432.96
2023-04-29T07:26:09.384Z,3456.00
2023-04-29T07:27:10.110Z,3502.08
2023-04-29T07:28:10.854Z,3847.68
2023-04-29T07:29:11.608Z,3985.92
2023-04-29T07:30:12.248Z,3824.64
2023-04-29T07:31:12.584Z,3317.76
2023-04-29T07:32:13.235Z,2972.16
2023-04-29T07:33:13.947Z,2718.72
2023-04-29T07:34:14.617Z,2568.96
2023-04-29T07:34:23.323Z,2557.44
2023-04-29T07:35:23.956Z,3317.76
2023-04-29T07:36:24.556Z,3386.88
2023-04-29T07:37:25.476Z,4078.08
2023-04-29T07:38:26.178Z,3870.72
2023-04-29T07:39:26.631Z,4354.56
2023-04-29T07:40:27.294Z,4631.04
2023-04-29T07:41:27.443Z,5875.20
2023-04-29T07:42:28.254Z,5990.40
2023-04-29T07:43:29.037Z,4147.20
2023-04-29T07:44:29.694Z,4400.64
2023-04-29T07:45:30.398Z,4308.48
2023-04-29T07:46:31.141Z,3755.52
2023-04-29T07:47:32.059Z,5184.00
2023-04-29T07:47:40.769Z,5299.20
2023-04-29T07:48:41.478Z,6220.80
2023-04-29T07:49:42.202Z,7511.04
2023-04-29T07:50:43.239Z,8432.64
2023-04-29T07:51:43.932Z,8524.80
2023-04-29T07:52:44.643Z,8570.88
2023-04-29T07:53:45.307Z,7280.64
2023-04-29T07:54:46.196Z,7050.24
2023-04-29T07:55:46.945Z,7096.32
2023-04-29T07:56:47.739Z,6958.08
2023-04-29T07:57:48.484Z,6681.60
2023-04-29T07:58:49.466Z,6589.44
2023-04-29T07:59:50.173Z,6128.64
2023-04-29T08:00:03.321Z,6036.48
2023-04-29T08:01:04.125Z,5690.88
2023-04-29T08:02:04.308Z,5529.60
2023-04-29T08:03:05.374Z,5529.60
2023-04-29T08:04:06.121Z,5253.12
2023-04-29T08:05:07.145Z,5345.28
2023-04-29T08:06:07.471Z,5598.72
2023-04-29T08:07:07.491Z,6082.56
2023-04-29T08:08:08.069Z,6589.44
2023-04-29T08:09:08.238Z,6819.84
2023-04-29T08:10:08.937Z,7234.56
2023-04-29T08:11:09.675Z,7050.24
2023-04-29T08:12:10.395Z,7188.48
2023-04-29T08:13:11.172Z,7557.12
2023-04-29T08:14:11.936Z,7879.68
2023-04-29T08:14:21.674Z,8017.92
2023-04-29T08:15:21.297Z,8478.72
2023-04-29T08:16:21.383Z,8663.04
2023-04-29T08:17:22.360Z,8294.40
2023-04-29T08:18:22.695Z,8017.92
2023-04-29T08:19:23.596Z,7649.28
2023-04-29T08:20:24.226Z,7280.64
2023-04-29T08:21:24.962Z,7372.80
2023-04-29T08:22:25.665Z,7971.84
2023-04-29T08:23:26.350Z,7695.36
2023-04-29T08:24:27.235Z,7833.60
2023-04-29T08:25:28.083Z,8248.32
2023-04-29T08:25:36.732Z,8248.32
2023-04-29T08:26:37.684Z,8524.80
2023-04-29T08:27:38.336Z,8755.20
2023-04-29T08:28:38.559Z,8893.44
2023-04-29T08:29:39.221Z,8709.12
2023-04-29T08:30:40.056Z,7925.76
2023-04-29T08:31:40.969Z,7511.04
2023-04-29T08:32:41.867Z,7695.36
2023-04-29T08:33:42.333Z,8017.92
2023-04-29T08:34:42.972Z,8248.32
2023-04-29T08:35:43.434Z,8478.72
2023-04-29T08:36:44.191Z,8616.96
2023-04-29T08:36:53.811Z,8616.96
2023-04-29T08:37:55.749Z,8524.80
2023-04-29T08:38:55.153Z,8478.72
2023-04-29T08:39:55.805Z,8755.20
2023-04-29T08:40:55.962Z,8985.60
2023-04-29T08:41:56.349Z,9262.08
2023-04-29T08:42:56.961Z,10091.52
2023-04-29T08:43:56.858Z,10506.24
2023-04-29T08:44:57.476Z,10967.04
2023-04-29T08:45:58.328Z,10506.24
2023-04-29T08:46:58.717Z,10644.48
2023-04-29T08:47:59.446Z,10414.08
2023-04-29T08:48:59.962Z,9815.04
2023-04-29T08:49:40.926Z,9630.72
2023-04-29T08:50:40.963Z,9446.40
2023-04-29T08:51:42.438Z,9216.00
2023-04-29T08:52:42.142Z,8847.36
2023-04-29T08:53:43.925Z,8847.36
2023-04-29T08:54:42.932Z,8755.20
2023-04-29T08:55:43.755Z,8709.12
2023-04-29T08:56:44.306Z,9446.40
2023-04-29T08:57:46.087Z,9999.36
2023-04-29T08:58:45.608Z,9768.96
2023-04-29T08:59:45.705Z,9446.40
2023-04-29T09:00:46.178Z,9400.32
2023-04-29T09:01:46.876Z,9861.12
2023-04-29T09:02:47.729Z,10137.60
2023-04-29T09:03:47.942Z,10183.68
2023-04-29T09:03:58.542Z,10183.68
2023-04-29T09:04:59.159Z,9907.20
2023-04-29T09:05:59.328Z,9262.08
2023-04-29T09:07:00.337Z,8248.32
2023-04-29T09:08:00.765Z,7234.56
2023-04-29T09:09:00.915Z,7050.24
2023-04-29T09:10:01.686Z,6359.04
2023-04-29T09:11:02.354Z,6036.48
2023-04-29T09:12:03.300Z,6174.72
2023-04-29T09:13:04.138Z,6312.96
2023-04-29T09:14:04.865Z,6312.96
2023-04-29T09:15:05.213Z,5898.24
2023-04-29T09:16:06.046Z,5898.24
2023-04-29T09:17:06.062Z,6036.48
2023-04-29T09:17:15.554Z,5990.40
2023-04-29T09:18:16.318Z,5944.32
2023-04-29T09:19:16.651Z,6497.28
2023-04-29T09:20:17.306Z,7004.16
2023-04-29T09:21:20.305Z,7050.24
2023-04-29T09:22:18.699Z,6819.84
2023-04-29T09:23:19.419Z,6773.76
2023-04-29T09:24:20.070Z,7004.16
2023-04-29T09:25:20.734Z,7326.72
2023-04-29T09:26:21.236Z,7234.56
2023-04-29T09:27:22.388Z,6912.00
2023-04-29T09:28:22.060Z,6681.60
2023-04-29T09:29:22.743Z,6405.12
2023-04-29T09:30:23.391Z,6359.04
2023-04-29T09:30:33.043Z,6359.04
2023-04-29T09:31:33.640Z,6359.04
2023-04-29T09:32:33.989Z,6174.72
2023-04-29T09:33:34.592Z,5875.20
2023-04-29T09:34:35.076Z,5460.48
2023-04-29T09:35:36.076Z,4953.60
2023-04-29T09:36:36.485Z,4861.44
2023-04-29T09:37:37.424Z,4976.64
2023-04-29T09:38:37.652Z,4884.48
2023-04-29T09:39:38.058Z,4907.52
2023-04-29T09:40:56.852Z,5045.76
2023-04-29T09:41:39.303Z,5345.28
2023-04-29T09:41:50.165Z,5460.48
2023-04-29T09:42:51.016Z,6174.72
2023-04-29T09:43:51.723Z,6912.00
2023-04-29T09:44:52.707Z,7511.04
2023-04-29T09:45:53.272Z,8064.00
2023-04-29T09:46:53.288Z,8110.08
2023-04-29T09:47:54.714Z,8017.92
2023-04-29T09:48:54.768Z,8340.48
2023-04-29T09:49:54.062Z,8386.56
2023-04-29T09:50:54.114Z,8156.16
2023-04-29T09:51:54.550Z,8616.96
2023-04-29T09:52:55.399Z,9308.16
2023-04-29T09:53:55.418Z,9907.20
2023-04-29T09:54:55.882Z,10321.92
2023-04-29T09:55:55.842Z,11289.60
2023-04-29T09:56:56.695Z,11612.16
2023-04-29T09:57:58.085Z,11704.32
2023-04-29T09:58:57.671Z,11888.64
2023-04-29T09:59:08.868Z,11796.48
2023-04-29T10:00:09.136Z,11566.08
2023-04-29T10:01:10.003Z,11243.52
2023-04-29T10:02:10.873Z,10874.88
2023-04-29T10:03:11.651Z,10460.16
2023-04-29T10:04:11.887Z,10321.92
2023-04-29T10:05:12.205Z,10321.92
2023-04-29T10:06:13.136Z,10321.92
2023-04-29T10:07:13.952Z,10137.60
2023-04-29T10:08:14.945Z,10598.40
2023-04-29T10:09:15.775Z,9999.36
2023-04-29T10:10:16.558Z,9308.16
2023-04-29T10:11:17.183Z,8939.52
2023-04-29T10:11:27.951Z,8939.52
2023-04-29T10:12:28.704Z,8847.36
2023-04-29T10:13:28.858Z,8248.32
2023-04-29T10:14:29.670Z,7418.88
2023-04-29T10:15:30.548Z,6681.60
2023-04-29T10:16:30.900Z,6958.08
2023-04-29T10:17:31.705Z,7695.36
2023-04-29T10:18:32.440Z,7418.88
2023-04-29T10:19:32.291Z,7142.40
2023-04-29T10:20:33.116Z,6819.84
2023-04-29T10:21:33.958Z,6543.36
2023-04-29T10:21:50.733Z,6543.36
2023-04-29T10:22:50.911Z,6727.68
2023-04-29T10:23:51.076Z,6912.00
2023-04-29T10:24:51.928Z,6912.00
2023-04-29T10:25:52.338Z,6451.20
2023-04-29T10:26:52.781Z,6405.12
2023-04-29T10:27:53.312Z,6451.20
2023-04-29T10:28:54.431Z,6174.72
2023-04-29T10:29:54.445Z,5875.20
2023-04-29T10:30:57.589Z,5944.32
2023-04-29T10:31:56.756Z,5990.40
2023-04-29T10:32:56.658Z,5852.16
2023-04-29T10:33:07.746Z,5806.08
2023-04-29T10:34:09.099Z,5713.92
2023-04-29T10:35:08.599Z,5829.12
2023-04-29T10:36:09.505Z,5852.16
2023-04-29T10:37:09.635Z,5690.88
2023-04-29T10:38:11.012Z,5621.76
2023-04-29T10:39:11.856Z,5713.92
2023-04-29T10:40:15.770Z,5944.32
2023-04-29T10:41:11.155Z,6036.48
2023-04-29T10:42:11.125Z,5898.24
2023-04-29T10:43:12.140Z,5760.00
2023-04-29T10:43:40.125Z,5736.96
2023-04-29T10:44:39.621Z,5667.84
2023-04-29T10:45:40.445Z,5575.68
2023-04-29T10:46:40.576Z,5299.20
2023-04-29T10:47:41.409Z,4953.60
2023-04-29T10:48:42.228Z,4746.24
2023-04-29T10:49:42.237Z,4561.92
2023-04-29T10:50:43.237Z,4492.80
2023-04-29T10:51:43.482Z,4608.00
2023-04-29T10:52:44.457Z,4746.24
2023-04-29T10:53:45.358Z,4838.40
2023-04-29T10:54:45.788Z,5022.72
2023-04-29T10:55:46.016Z,5322.24
2023-04-29T10:56:46.879Z,5690.88
2023-04-29T10:57:47.914Z,5990.40
2023-04-29T10:58:05.642Z,6036.48
2023-04-29T10:59:06.564Z,6174.72
2023-04-29T11:00:07.089Z,6128.64
2023-04-29T11:01:07.325Z,6082.56
2023-04-29T11:02:08.623Z,6359.04
2023-04-29T11:03:07.734Z,6635.52
2023-04-29T11:04:07.841Z,6958.08
2023-04-29T11:05:07.770Z,7372.80
2023-04-29T11:06:08.598Z,7741.44
2023-04-29T11:07:09.430Z,8202.24
2023-04-29T11:08:09.787Z,8893.44
2023-04-29T11:08:25.075Z,9031.68
2023-04-29T11:09:25.010Z,9815.04
2023-04-29T11:10:25.562Z,10229.76
2023-04-29T11:11:27.791Z,10229.76
2023-04-29T11:12:26.756Z,10137.60
2023-04-29T11:13:27.640Z,9999.36
2023-04-29T11:14:28.254Z,9630.72
2023-04-29T11:15:28.946Z,8985.60
2023-04-29T11:16:29.890Z,8202.24
2023-04-29T11:17:30.741Z,8064.00
2023-04-29T11:18:30.791Z,8616.96
2023-04-29T11:19:31.661Z,9216.00
2023-04-29T11:20:32.475Z,9768.96
2023-04-29T11:21:32.843Z,10045.44
2023-04-29T11:22:33.437Z,10368.00
2023-04-29T11:22:44.244Z,10414.08
2023-04-29T11:23:44.794Z,10874.88
2023-04-29T11:24:45.185Z,11335.68
2023-04-29T11:25:46.151Z,11289.60
2023-04-29T11:26:46.732Z,10506.24
2023-04-29T11:27:47.470Z,9446.40
2023-04-29T11:28:48.547Z,8524.80
2023-04-29T11:29:49.226Z,7971.84
2023-04-29T11:30:49.456Z,7418.88
2023-04-29T11:31:50.049Z,7004.16
2023-04-29T11:32:51.050Z,7280.64
2023-04-29T11:33:51.718Z,7695.36
2023-04-29T11:34:05.023Z,7741.44
2023-04-29T11:35:03.876Z,7741.44
2023-04-29T11:36:04.746Z,7833.60
2023-04-29T11:37:05.474Z,8017.92
2023-04-29T11:38:06.398Z,7787.52
2023-04-29T11:39:06.957Z,7418.88
2023-04-29T11:40:06.988Z,7050.24
2023-04-29T11:41:08.431Z,6865.92
2023-04-29T11:42:08.090Z,7096.32
2023-04-29T11:43:08.401Z,7557.12
2023-04-29T11:44:09.249Z,8202.24
2023-04-29T11:45:09.865Z,8616.96
2023-04-29T11:46:10.063Z,8755.20
2023-04-29T11:47:10.471Z,8663.04
2023-04-29T11:48:10.819Z,8570.88
2023-04-29T11:49:11.826Z,8478.72
2023-04-29T11:49:25.134Z,8386.56
2023-04-29T11:50:25.002Z,8156.16
2023-04-29T11:51:25.726Z,7741.44
2023-04-29T11:52:26.210Z,7326.72
2023-04-29T11:53:27.110Z,7372.80
2023-04-29T11:54:28.245Z,7464.96
2023-04-29T11:55:27.912Z,7695.36
2023-04-29T11:56:28.791Z,7925.76
2023-04-29T11:57:29.858Z,8064.00
2023-04-29T11:58:30.551Z,8017.92
2023-04-29T11:59:32.191Z,7879.68
2023-04-29T12:00:31.423Z,7787.52